Time;durP1;ratioP1;P1;durP2;ratioP2;P2;SDS_P1;SDS_P2;PMS_P1;PMS_P2;Temp;Humidity;BMP_temperature;BMP_pressure;BME280_temperature;BME280_humidity;BME280_pressure;Samples;Min_cycle;Max_cycle;Signal;HPM_P1;HPM_P2
2022/12/09 00:01:15;;;;;;;19.50;13.43;;;;;;;1.84;100.00;100002.06;4994955;28;20137;-78
2022/12/09 00:03:42;;;;;;;23.85;13.50;;;;;;;1.84;100.00;100007.22;4995005;28;20137;-79
2022/12/09 00:06:09;;;;;;;23.17;13.48;;;;;;;1.81;100.00;100002.28;4999792;28;20097;-78
2022/12/09 00:08:36;;;;;;;20.77;13.98;;;;;;;1.82;100.00;99998.75;5003709;28;20560;-78
2022/12/09 00:11:05;;;;;;;20.95;13.95;;;;;;;1.76;100.00;99999.22;4999340;28;20549;-77
2022/12/09 00:13:32;;;;;;;20.30;13.55;;;;;;;1.73;100.00;99989.13;4992238;28;20046;-78
2022/12/09 00:15:58;;;;;;;21.38;14.38;;;;;;;1.64;100.00;99995.78;4996216;28;20048;-78
2022/12/09 00:18:25;;;;;;;22.95;13.68;;;;;;;1.59;100.00;99996.13;4992600;28;20052;-78
2022/12/09 00:20:52;;;;;;;25.00;13.43;;;;;;;1.58;100.00;99993.66;4993227;28;20153;-78
2022/12/09 00:23:18;;;;;;;20.58;13.25;;;;;;;1.59;100.00;99997.91;4993639;28;20089;-78
2022/12/09 00:25:45;;;;;;;21.02;13.30;;;;;;;1.58;100.00;100002.22;4993200;28;20089;-78
2022/12/09 00:28:16;;;;;;;21.30;13.55;;;;;;;1.57;100.00;99995.44;4992848;28;20417;-78
2022/12/09 00:30:43;;;;;;;20.23;13.30;;;;;;;1.55;100.00;99999.88;4993267;28;20069;-78
2022/12/09 00:33:09;;;;;;;19.98;12.43;;;;;;;1.50;100.00;99989.06;4999439;28;20303;-80
2022/12/09 00:35:36;;;;;;;21.85;12.15;;;;;;;1.49;100.00;99987.44;5000978;28;20085;-79
2022/12/09 00:38:02;;;;;;;18.73;12.30;;;;;;;1.46;100.00;99979.94;5004989;28;20053;-79
2022/12/09 00:40:29;;;;;;;21.75;12.13;;;;;;;1.48;100.00;99992.69;5006353;28;20081;-79
2022/12/09 00:42:56;;;;;;;20.45;12.88;;;;;;;1.48;100.00;99990.94;5008502;28;20054;-79
2022/12/09 00:45:24;;;;;;;21.05;12.60;;;;;;;1.47;100.00;99989.31;5012251;28;20046;-79
2022/12/09 00:47:50;;;;;;;19.05;12.07;;;;;;;1.53;100.00;99988.84;5010853;28;20050;-77
2022/12/09 00:50:17;;;;;;;19.45;12.75;;;;;;;1.58;100.00;99991.91;5009642;28;20077;-79
2022/12/09 00:52:43;;;;;;;20.00;13.45;;;;;;;1.54;100.00;99995.66;5013199;28;20050;-79
2022/12/09 00:55:10;;;;;;;21.02;12.30;;;;;;;1.52;100.00;99994.94;5014015;28;20533;-79
2022/12/09 00:57:38;;;;;;;22.17;13.07;;;;;;;1.50;100.00;99990.84;5004664;28;20046;-79
2022/12/09 01:00:06;;;;;;;19.33;12.48;;;;;;;1.54;100.00;99997.41;4999415;28;20145;-79
2022/12/09 01:02:35;;;;;;;23.08;12.60;;;;;;;1.55;100.00;99988.75;5000337;28;20257;-79
2022/12/09 01:05:02;;;;;;;21.75;13.60;;;;;;;1.47;100.00;99988.47;5000532;28;20054;-79
2022/12/09 01:07:29;;;;;;;23.42;13.32;;;;;;;1.43;100.00;99993.03;4998211;28;20046;-79
2022/12/09 01:09:56;;;;;;;19.73;12.63;;;;;;;1.40;100.00;99990.72;4999410;28;20379;-78
2022/12/09 01:12:22;;;;;;;21.05;13.43;;;;;;;1.40;100.00;99997.63;4998789;28;20055;-78
2022/12/09 01:14:49;;;;;;;22.40;13.57;;;;;;;1.39;100.00;99991.66;5045669;23;20090;-79
2022/12/09 01:17:16;;;;;;;20.42;13.43;;;;;;;1.39;100.00;99999.38;5043456;28;20428;-79
2022/12/09 01:19:44;;;;;;;18.45;12.68;;;;;;;1.29;100.00;99988.09;5044299;28;20116;-79
2022/12/09 01:22:10;;;;;;;18.83;12.98;;;;;;;1.34;100.00;100001.47;5028908;28;20084;-79
2022/12/09 01:24:37;;;;;;;21.75;12.77;;;;;;;1.25;100.00;99984.09;5012027;28;20046;-77
2022/12/09 01:27:04;;;;;;;22.40;13.45;;;;;;;1.28;100.00;99992.44;5005532;28;20106;-79
2022/12/09 01:29:30;;;;;;;21.30;13.90;;;;;;;1.23;100.00;99984.22;5004497;28;20057;-78
2022/12/09 01:31:57;;;;;;;23.17;14.27;;;;;;;1.28;100.00;100001.91;5000393;28;20089;-78
2022/12/09 01:34:24;;;;;;;19.02;13.20;;;;;;;1.31;100.00;99999.94;4993636;28;20157;-79
2022/12/09 01:36:52;;;;;;;21.55;14.30;;;;;;;1.36;100.00;100006.53;4984818;28;20078;-78
2022/12/09 01:39:18;;;;;;;23.40;14.55;;;;;;;1.29;100.00;99996.66;5015607;28;20125;-78
2022/12/09 01:41:45;;;;;;;23.15;14.13;;;;;;;1.38;100.00;100004.66;5002993;28;20129;-79
2022/12/09 01:44:16;;;;;;;23.70;13.93;;;;;;;1.32;100.00;99986.13;5003730;28;20175;-77
2022/12/09 01:46:44;;;;;;;27.88;14.43;;;;;;;1.37;100.00;99992.69;5000029;28;20078;-80
2022/12/09 01:49:16;;;;;;;21.20;13.00;;;;;;;1.42;100.00;100006.88;5005872;28;20046;-78
2022/12/09 01:51:45;;;;;;;21.73;14.13;;;;;;;1.39;100.00;99998.56;5005791;28;20089;-80
2022/12/09 01:54:14;;;;;;;21.58;13.38;;;;;;;1.40;100.00;100002.78;5005637;28;20206;-79
2022/12/09 01:56:41;;;;;;;22.33;13.15;;;;;;;1.37;100.00;100003.84;5008121;28;20046;-79
2022/12/09 01:59:10;;;;;;;24.30;13.85;;;;;;;1.34;100.00;99988.59;5007079;28;20053;-79
2022/12/09 02:01:37;;;;;;;22.05;13.73;;;;;;;1.37;100.00;99988.38;5003813;28;20050;-79
2022/12/09 02:04:05;;;;;;;21.35;13.57;;;;;;;1.38;100.00;99990.00;5007021;28;20078;-79
2022/12/09 02:06:32;;;;;;;25.42;14.15;;;;;;;1.44;100.00;99989.53;4988753;28;20082;-79
2022/12/09 02:08:59;;;;;;;22.73;13.50;;;;;;;1.42;100.00;99995.75;4986449;28;20090;-79
2022/12/09 02:11:37;;;;;;;21.02;13.00;;;;;;;1.32;100.00;99988.69;5000422;28;20050;-79
2022/12/09 02:14:12;;;;;;;19.02;13.02;;;;;;;1.39;100.00;99988.25;5006642;28;20063;-79
2022/12/09 02:16:56;;;;;;;19.85;12.70;;;;;;;1.31;100.00;99969.00;4990984;28;20074;-80
2022/12/09 02:19:29;;;;;;;;;;;;;;;1.45;100.00;99975.72;4986096;28;20050;-78
2022/12/09 02:21:58;;;;;;;;;;;;;;;1.47;100.00;99989.31;4987352;28;19964;-80
2022/12/09 02:24:34;;;;;;;22.83;14.07;;;;;;;1.42;100.00;99968.19;4983728;28;20006;-79
2022/12/09 02:27:10;;;;;;;21.05;13.45;;;;;;;1.38;100.00;99971.97;4986731;28;20082;-80
2022/12/09 02:29:57;;;;;;;24.35;13.80;;;;;;;1.32;100.00;99962.09;5002744;28;20056;-80
2022/12/09 02:32:48;;;;;;;19.73;13.48;;;;;;;1.29;100.00;99973.47;4984064;28;20533;-78
2022/12/09 02:35:23;;;;;;;18.73;12.98;;;;;;;1.18;100.00;99951.97;4985183;28;20082;-78
2022/12/09 02:37:55;;;;;;;19.50;13.38;;;;;;;1.18;100.00;99944.25;4993262;28;20047;-76
2022/12/09 02:40:26;;;;;;;18.77;13.25;;;;;;;1.27;100.00;99962.44;5003983;28;20073;-79
2022/12/09 02:42:55;;;;;;;25.15;14.05;;;;;;;1.24;100.00;99954.13;5005669;28;20061;-78
2022/12/09 02:45:24;;;;;;;21.83;13.93;;;;;;;1.31;100.00;99960.47;5005631;28;20070;-79
2022/12/09 02:47:53;;;;;;;24.38;14.02;;;;;;;1.22;100.00;99968.88;5006963;28;20102;-78
2022/12/09 02:50:27;;;;;;;20.25;13.43;;;;;;;1.16;100.00;99962.41;5003788;28;20489;-78
2022/12/09 02:52:55;;;;;;;23.35;13.77;;;;;;;1.13;100.00;99954.06;5001193;28;20085;-78
2022/12/09 02:55:23;;;;;;;21.17;14.23;;;;;;;1.08;100.00;99963.88;4997779;28;20153;-78
2022/12/09 02:57:53;;;;;;;22.02;13.68;;;;;;;1.13;100.00;99962.63;4979670;28;20082;-77
2022/12/09 03:00:21;;;;;;;23.73;14.15;;;;;;;1.22;100.00;99958.56;4982677;28;20105;-78
2022/12/09 03:02:50;;;;;;;23.25;14.68;;;;;;;1.16;100.00;99953.84;4998853;28;20169;-78
2022/12/09 03:05:26;;;;;;;22.30;14.70;;;;;;;1.17;100.00;99955.50;4998859;28;20046;-78
2022/12/09 03:08:02;;;;;;;22.35;13.90;;;;;;;1.21;100.00;99949.19;4999855;28;20110;-78
2022/12/09 03:10:36;;;;;;;22.13;13.88;;;;;;;1.22;100.00;99955.97;4999385;28;20046;-78
2022/12/09 03:13:10;;;;;;;20.67;14.50;;;;;;;1.20;100.00;99950.94;4999299;28;20133;-77
2022/12/09 03:15:39;;;;;;;24.35;14.40;;;;;;;1.16;100.00;99944.38;4996660;28;20621;-78
2022/12/09 03:18:11;;;;;;;22.05;14.43;;;;;;;1.05;100.00;99946.06;4985263;28;20061;-79
2022/12/09 03:20:42;;;;;;;17.33;10.73;;;;;;;0.99;100.00;99940.44;4985695;28;20082;-79
2022/12/09 03:23:11;;;;;;;21.40;14.65;;;;;;;1.00;100.00;99939.50;4985682;28;20461;-79
2022/12/09 03:25:40;;;;;;;26.65;14.82;;;;;;;1.06;100.00;99951.13;4988107;28;20046;-79
2022/12/09 03:28:11;;;;;;;22.23;14.77;;;;;;;0.91;100.00;99935.03;5004097;28;20051;-79
2022/12/09 03:30:41;;;;;;;24.83;14.15;;;;;;;0.98;100.00;99943.13;4998976;28;20050;-79
2022/12/09 03:33:10;;;;;;;21.92;14.35;;;;;;;0.93;100.00;99943.47;5004396;28;20100;-79
2022/12/09 03:35:42;;;;;;;23.33;14.98;;;;;;;0.91;100.00;99944.53;5004668;28;20050;-78
2022/12/09 03:38:14;;;;;;;22.85;15.35;;;;;;;0.76;100.00;99932.75;5001078;28;20137;-80
2022/12/09 03:40:42;;;;;;;25.05;14.82;;;;;;;0.67;100.00;99929.06;5001739;28;20070;-80
2022/12/09 03:43:13;;;;;;;23.95;14.35;;;;;;;0.65;100.00;99941.25;5001264;28;20050;-79
2022/12/09 03:45:40;;;;;;;21.75;14.13;;;;;;;0.56;100.00;99936.75;4996340;28;20138;-79
2022/12/09 03:48:08;;;;;;;25.20;15.10;;;;;;;0.49;100.00;99930.38;4980745;28;20106;-80
2022/12/09 03:50:46;;;;;;;22.75;15.55;;;;;;;0.49;100.00;99938.94;4986386;28;20073;-79
2022/12/09 03:53:18;;;;;;;22.67;14.38;;;;;;;0.44;100.00;99924.75;5000676;28;20106;-79
2022/12/09 03:55:51;;;;;;;27.48;15.98;;;;;;;0.45;100.00;99939.28;4999266;28;20078;-80
2022/12/09 03:58:17;;;;;;;25.10;14.73;;;;;;;0.42;100.00;99939.50;4999323;28;20489;-79
2022/12/09 04:00:45;;;;;;;21.27;14.43;;;;;;;0.43;100.00;99946.28;4995026;28;20051;-79
2022/12/09 04:03:13;;;;;;;22.65;14.63;;;;;;;0.44;100.00;99947.94;4980358;28;20082;-80
2022/12/09 04:05:41;;;;;;;25.83;16.02;;;;;;;0.42;100.00;99942.88;4980962;28;20150;-80
2022/12/09 04:08:09;;;;;;;24.08;14.23;;;;;;;0.41;100.00;99936.09;4980847;28;20050;-79
2022/12/09 04:10:37;;;;;;;23.23;14.32;;;;;;;0.44;100.00;99937.63;4984959;28;20129;-80
2022/12/09 04:13:04;;;;;;;26.80;15.38;;;;;;;0.53;100.00;99931.81;5000807;28;20489;-79
2022/12/09 04:15:30;;;;;;;23.58;14.68;;;;;;;0.58;100.00;99927.97;4996871;28;20050;-79
2022/12/09 04:17:57;;;;;;;24.45;14.82;;;;;;;0.62;100.00;99939.69;4980410;28;20051;-77
2022/12/09 04:20:24;;;;;;;23.98;14.95;;;;;;;0.65;100.00;99941.25;4981822;28;20050;-78
2022/12/09 04:22:51;;;;;;;22.77;14.00;;;;;;;0.66;100.00;99935.97;4980805;28;20077;-80
2022/12/09 04:25:18;;;;;;;24.15;15.40;;;;;;;0.67;100.00;99936.81;4983151;28;20058;-78
2022/12/09 04:27:46;;;;;;;23.60;15.73;;;;;;;0.72;100.00;99933.91;4985547;28;20089;-78
2022/12/09 04:30:13;;;;;;;31.83;15.43;;;;;;;0.71;100.00;99927.94;5000288;28;20112;-78
2022/12/09 04:32:39;;;;;;;23.38;15.25;;;;;;;0.73;100.00;99920.91;4984796;28;20097;-78
2022/12/09 04:35:06;;;;;;;18.92;13.65;;;;;;;0.82;100.00;99930.56;4984753;28;20137;-79
2022/12/09 04:37:33;;;;;;;21.67;14.63;;;;;;;0.69;100.00;99913.53;4985452;28;20107;-79
2022/12/09 04:40:00;;;;;;;27.00;16.35;;;;;;;0.73;100.00;99915.75;4999467;28;20068;-78
2022/12/09 04:42:28;;;;;;;25.27;15.20;;;;;;;0.77;100.00;99922.34;5005751;28;20469;-81
2022/12/09 04:44:56;;;;;;;28.10;15.40;;;;;;;0.78;100.00;99918.00;5005071;28;20081;-79
2022/12/09 04:47:22;;;;;;;26.25;15.60;;;;;;;0.77;100.00;99922.34;4998051;28;20085;-79
2022/12/09 04:49:49;;;;;;;20.60;15.05;;;;;;;0.71;100.00;99922.78;5005595;28;20046;-79
2022/12/09 04:52:17;;;;;;;23.33;15.77;;;;;;;0.69;100.00;99914.34;5006532;28;20146;-79
2022/12/09 04:54:44;;;;;;;25.27;14.43;;;;;;;0.52;100.00;99919.88;5006430;28;20081;-81
2022/12/09 04:57:10;;;;;;;25.67;14.93;;;;;;;0.40;100.00;99903.56;4992588;28;20054;-81
2022/12/09 04:59:37;;;;;;;24.20;15.73;;;;;;;0.44;100.00;99919.63;4985146;28;20046;-80
2022/12/09 05:02:05;;;;;;;26.05;15.77;;;;;;;0.40;100.00;99928.47;4999796;28;20061;-81
2022/12/09 05:04:32;;;;;;;26.65;16.38;;;;;;;0.36;100.00;99916.75;5002902;28;20334;-78
2022/12/09 05:06:58;;;;;;;27.65;15.77;;;;;;;0.32;100.00;99922.13;4986227;28;20504;-79
2022/12/09 05:09:25;;;;;;;24.92;15.45;;;;;;;0.26;100.00;99927.69;4993062;28;20086;-77
2022/12/09 05:11:52;;;;;;;27.25;16.88;;;;;;;0.22;100.00;99926.25;5000013;28;20085;-77
2022/12/09 05:14:19;;;;;;;26.77;16.20;;;;;;;0.22;100.00;99926.25;5000679;28;20086;-79
2022/12/09 05:16:45;;;;;;;26.92;16.17;;;;;;;0.23;100.00;99933.06;4987995;28;20130;-77
2022/12/09 05:19:13;;;;;;;29.88;17.33;;;;;;;0.21;100.00;99929.75;4980088;28;20078;-78
2022/12/09 05:21:42;;;;;;;25.63;16.45;;;;;;;0.17;100.00;99925.75;4986415;28;20073;-79
2022/12/09 05:24:09;;;;;;;31.67;17.80;;;;;;;0.25;100.00;99931.19;5000241;28;20082;-79
2022/12/09 05:26:36;;;;;;;25.25;15.80;;;;;;;0.28;100.00;99925.00;5000859;28;20054;-80
2022/12/09 05:29:04;;;;;;;26.83;16.10;;;;;;;0.30;100.00;99923.16;5001959;28;20081;-79
2022/12/09 05:31:30;;;;;;;25.55;15.80;;;;;;;0.35;100.00;99927.97;4989738;28;20501;-78
2022/12/09 05:33:58;;;;;;;33.00;17.17;;;;;;;0.38;100.00;99933.75;4981464;28;20114;-78
2022/12/09 05:36:27;;;;;;;29.10;16.20;;;;;;;0.39;100.00;99929.41;4985315;28;20050;-78
2022/12/09 05:38:54;;;;;;;27.50;16.35;;;;;;;0.48;100.00;99921.00;4998385;28;20050;-77
2022/12/09 05:41:22;;;;;;;23.25;15.68;;;;;;;0.47;100.00;99927.13;4989088;28;20098;-78
2022/12/09 05:43:49;;;;;;;25.15;16.67;;;;;;;0.46;100.00;99926.31;4985737;28;20070;-78
2022/12/09 05:46:16;;;;;;;24.92;16.70;;;;;;;0.45;100.00;99918.69;4980715;28;20131;-78
2022/12/09 05:48:44;;;;;;;40.42;22.88;;;;;;;0.43;100.00;99923.13;4979580;28;20138;-78
2022/12/09 05:51:14;;;;;;;42.70;23.58;;;;;;;0.40;100.00;99925.91;4989031;28;20539;-78
2022/12/09 05:53:42;;;;;;;38.10;22.17;;;;;;;0.31;100.00;99917.09;5001331;28;20394;-78
2022/12/09 05:56:09;;;;;;;32.95;19.55;;;;;;;0.20;100.00;99917.81;5000723;28;20070;-78
2022/12/09 05:58:35;;;;;;;30.08;18.15;;;;;;;0.12;100.00;99919.28;4996159;28;20070;-78
2022/12/09 06:01:05;;;;;;;31.45;17.23;;;;;;;-0.01;100.00;99917.59;4990125;28;20063;-78
2022/12/09 06:03:32;;;;;;;27.65;16.42;;;;;;;-0.12;100.00;99919.25;5001162;28;20089;-78
2022/12/09 06:05:59;;;;;;;34.00;19.65;;;;;;;-0.17;100.00;99913.59;5002104;28;20070;-79
2022/12/09 06:08:26;;;;;;;26.25;17.05;;;;;;;-0.22;100.00;99918.22;4986463;28;20146;-81
2022/12/09 06:10:54;;;;;;;31.75;18.83;;;;;;;-0.28;100.00;99921.22;4982993;28;20070;-80
2022/12/09 06:13:20;;;;;;;30.45;18.17;;;;;;;-0.38;100.00;99910.72;4981799;28;20503;-79
2022/12/09 06:15:47;;;;;;;29.35;17.85;;;;;;;-0.52;100.00;99909.13;4988339;28;20587;-78
2022/12/09 06:18:14;;;;;;;26.58;16.98;;;;;;;-0.53;100.00;99915.19;5000978;28;20101;-78
2022/12/09 06:20:40;;;;;;;28.90;17.67;;;;;;;-0.66;100.00;99904.06;5001960;28;20077;-78
2022/12/09 06:23:08;;;;;;;33.70;17.35;;;;;;;-0.67;100.00;99910.13;5001558;28;20062;-80
2022/12/09 06:25:34;;;;;;;32.45;18.23;;;;;;;-0.72;100.00;99918.16;4997778;28;20111;-80
2022/12/09 06:28:02;;;;;;;28.98;17.95;;;;;;;-0.70;100.00;99920.63;4982149;28;20141;-80
2022/12/09 06:30:29;;;;;;;30.85;17.48;;;;;;;-0.70;100.00;99920.63;4985993;28;20144;-80
2022/12/09 06:32:56;;;;;;;30.23;17.55;;;;;;;-0.78;100.00;99908.28;5003129;28;20446;-80
2022/12/09 06:35:23;;;;;;;37.78;21.38;;;;;;;-0.80;100.00;99917.00;5000553;28;20046;-78
2022/12/09 06:37:51;;;;;;;30.00;17.95;;;;;;;-0.85;100.00;99921.63;5000803;28;20052;-78
2022/12/09 06:40:20;;;;;;;30.40;17.60;;;;;;;-0.87;100.00;99918.31;4987027;28;20074;-81
2022/12/09 06:42:49;;;;;;;30.20;18.55;;;;;;;-0.92;100.00;99921.19;4981168;28;20078;-81
2022/12/09 06:45:17;;;;;;;31.65;17.38;;;;;;;-0.92;100.00;99920.38;4983968;28;20054;-82
2022/12/09 06:47:44;;;;;;;32.20;18.20;;;;;;;-0.97;100.00;99927.59;4980021;28;20488;-81
2022/12/09 06:50:11;;;;;;;30.77;18.15;;;;;;;-1.05;100.00;99928.91;4997278;28;20050;-79
2022/12/09 06:52:39;;;;;;;27.55;17.88;;;;;;;-1.09;100.00;99930.00;5000267;28;20069;-80
2022/12/09 06:55:07;;;;;;;32.47;19.00;;;;;;;-1.11;100.00;99929.28;5004497;28;20046;-80
2022/12/09 06:57:34;;;;;;;32.75;19.23;;;;;;;-1.08;100.00;99931.66;4999960;28;20145;-80
2022/12/09 07:00:01;;;;;;;38.92;19.30;;;;;;;-1.10;100.00;99930.13;4998399;28;20239;-82
2022/12/09 07:02:29;;;;;;;34.38;18.33;;;;;;;-1.15;100.00;99934.72;4999374;28;20078;-79
2022/12/09 07:04:56;;;;;;;33.67;18.70;;;;;;;-1.15;100.00;99934.72;5002309;28;20069;-80
2022/12/09 07:07:23;;;;;;;33.20;18.45;;;;;;;-1.20;100.00;99937.56;4987126;28;20051;-80
2022/12/09 07:09:50;;;;;;;34.92;18.80;;;;;;;-1.16;100.00;99938.22;4992049;28;20106;-80
2022/12/09 07:12:17;;;;;;;36.13;20.85;;;;;;;-1.17;100.00;99934.81;4992972;28;20053;-79
2022/12/09 07:14:43;;;;;;;31.08;19.50;;;;;;;-1.20;100.00;99944.47;5018702;23;20050;-79
2022/12/09 07:17:15;;;;;;;31.17;19.40;;;;;;;-1.17;100.00;99945.09;5015682;28;20136;-78
2022/12/09 07:19:43;;;;;;;31.67;19.98;;;;;;;-1.15;100.00;99945.81;5014679;28;20121;-78
2022/12/09 07:22:10;;;;;;;37.08;20.05;;;;;;;-1.15;100.00;99956.06;5014554;28;20628;-77
2022/12/09 07:24:37;;;;;;;31.00;19.48;;;;;;;-1.15;100.00;99950.13;5006629;28;20090;-77
2022/12/09 07:27:05;;;;;;;32.90;20.13;;;;;;;-1.14;100.00;99962.84;4996492;28;20429;-78
2022/12/09 07:29:32;;;;;;;34.70;20.60;;;;;;;-1.13;100.00;99956.81;4999029;28;20052;-78
2022/12/09 07:31:58;;;;;;;34.22;19.48;;;;;;;-1.11;100.00;99959.28;4999530;28;20042;-78
2022/12/09 07:34:25;;;;;;;32.83;18.55;;;;;;;-1.15;100.00;99950.13;4999507;28;20076;-77
2022/12/09 07:36:54;;;;;;;34.08;18.48;;;;;;;-1.12;100.00;99953.31;4999805;28;20069;-79
2022/12/09 07:39:21;;;;;;;34.83;19.92;;;;;;;-1.16;100.00;99957.00;5001848;28;20049;-79
2022/12/09 07:41:52;;;;;;;32.30;19.17;;;;;;;-1.15;100.00;99960.38;5000606;28;20057;-78
2022/12/09 07:44:18;;;;;;;35.38;19.90;;;;;;;-1.15;100.00;99968.91;4997432;28;20052;-78
2022/12/09 07:46:45;;;;;;;30.23;18.80;;;;;;;-1.16;100.00;99966.44;4998288;28;20137;-79
2022/12/09 07:49:12;;;;;;;32.00;18.95;;;;;;;-1.16;100.00;99969.00;5015427;28;20050;-79
2022/12/09 07:51:38;;;;;;;34.33;18.75;;;;;;;-1.17;100.00;99968.19;5017143;28;20474;-79
2022/12/09 07:54:14;;;;;;;35.72;19.17;;;;;;;-1.22;100.00;99965.09;5010975;28;20081;-79
2022/12/09 07:59:23;;;;;;;50.58;19.50;;;;;;;-1.20;100.00;99967.56;5014154;28;20046;-79
2022/12/09 08:01:54;;;;;;;43.92;21.80;;;;;;;-1.13;100.00;99977.34;4997955;28;20046;-80
2022/12/09 08:04:23;;;;;;;48.15;25.85;;;;;;;-1.04;100.00;99960.53;4995509;28;20050;-79
2022/12/09 08:06:51;;;;;;;42.95;22.98;;;;;;;-0.98;100.00;99969.59;4997466;28;20125;-79
2022/12/09 08:09:22;;;;;;;41.03;22.55;;;;;;;-0.86;100.00;99971.34;4999378;28;20077;-78
2022/12/09 08:11:54;;;;;;;38.75;21.17;;;;;;;-0.85;100.00;99967.84;4998384;28;20073;-78
2022/12/09 08:14:23;;;;;;;34.47;20.40;;;;;;;-0.77;100.00;99983.59;5000490;28;20081;-78
2022/12/09 08:16:50;;;;;;;47.75;31.70;;;;;;;-0.79;100.00;99970.03;4998076;28;20137;-78
2022/12/09 08:19:16;;;;;;;44.47;26.60;;;;;;;-0.64;100.00;99981.88;5010449;28;20046;-78
2022/12/09 08:21:43;;;;;;;44.53;26.45;;;;;;;-0.57;100.00;99979.72;5008346;28;20065;-79
2022/12/09 08:24:12;;;;;;;44.72;25.90;;;;;;;-0.63;100.00;99983.53;5002450;28;20046;-78
2022/12/09 08:26:40;;;;;;;41.20;24.98;;;;;;;-0.66;100.00;99978.59;4999108;28;20046;-78
2022/12/09 08:29:08;;;;;;;39.38;23.98;;;;;;;-0.70;100.00;99983.09;4997871;28;20775;-79
2022/12/09 08:31:35;;;;;;;39.20;23.98;;;;;;;-0.68;100.00;99975.28;4999244;28;20054;-79
2022/12/09 08:34:03;;;;;;;42.85;24.90;;;;;;;-0.71;100.00;99981.44;4998731;28;20061;-78
2022/12/09 08:36:30;;;;;;;47.03;26.00;;;;;;;-0.72;100.00;99966.13;4998472;28;20101;-79
2022/12/09 08:38:59;;;;;;;43.47;26.60;;;;;;;-0.69;100.00;99971.06;4999298;28;20089;-77
2022/12/09 08:41:34;;;;;;;43.42;26.02;;;;;;;-0.70;100.00;99972.00;4999481;28;20126;-80
2022/12/09 08:44:04;;;;;;;43.95;26.08;;;;;;;-0.72;100.00;99969.53;5003651;28;20054;-80
2022/12/09 08:46:32;;;;;;;44.60;26.85;;;;;;;-0.78;100.00;99962.22;5001111;28;20476;-79
2022/12/09 08:49:00;;;;;;;48.55;26.77;;;;;;;-0.78;100.00;99974.25;5002062;28;20069;-79
2022/12/09 08:51:27;;;;;;;49.20;25.98;;;;;;;-0.80;100.00;99965.81;5001510;28;20081;-79
2022/12/09 08:53:53;;;;;;;51.25;25.38;;;;;;;-0.80;100.00;99970.94;5000227;28;20198;-81
2022/12/09 08:56:20;;;;;;;44.92;24.60;;;;;;;-0.79;100.00;99959.75;5001564;28;20109;-79
2022/12/09 08:58:47;;;;;;;57.85;26.52;;;;;;;-0.73;100.00;99959.34;5000029;28;20061;-80
2022/12/09 09:01:17;;;;;;;67.65;27.05;;;;;;;-0.73;100.00;99957.59;5000053;28;20050;-80
2022/12/09 09:03:44;;;;;;;68.22;29.23;;;;;;;-0.67;100.00;99967.47;5000590;28;20046;-79
2022/12/09 09:06:11;;;;;;;51.05;25.52;;;;;;;-0.62;100.00;99964.63;4997990;28;20095;-79
2022/12/09 09:08:38;;;;;;;59.15;25.52;;;;;;;-0.54;100.00;99967.50;4999043;28;20077;-80
2022/12/09 09:11:10;;;;;;;45.20;25.15;;;;;;;-0.47;100.00;99971.28;5001296;28;20058;-80
2022/12/09 09:13:37;;;;;;;49.58;23.95;;;;;;;-0.39;100.00;99984.44;5004036;28;20054;-80
2022/12/09 09:16:03;;;;;;;58.58;28.92;;;;;;;-0.23;100.00;99981.69;5003242;28;20129;-79
2022/12/09 09:18:31;;;;;;;44.95;22.40;;;;;;;-0.13;100.00;99992.19;5001568;28;20058;-79
2022/12/09 09:20:58;;;;;;;52.58;22.08;;;;;;;-0.04;100.00;99989.81;5003826;28;20051;-80
2022/12/09 09:23:25;;;;;;;46.42;24.02;;;;;;;0.05;100.00;99983.19;5002647;28;20536;-78
2022/12/09 09:25:52;;;;;;;41.88;23.65;;;;;;;0.17;100.00;99995.22;5003271;28;20085;-78
2022/12/09 09:28:18;;;;;;;44.88;26.33;;;;;;;0.20;100.00;100000.16;5003727;28;20050;-79
2022/12/09 09:30:49;;;;;;;43.60;25.48;;;;;;;0.30;100.00;99998.59;5003031;28;20464;-80
2022/12/09 09:33:16;;;;;;;46.65;25.52;;;;;;;0.37;100.00;100000.75;5004154;28;20054;-79
2022/12/09 09:35:44;;;;;;;40.67;24.75;;;;;;;0.51;100.00;99995.44;4992540;28;20058;-80
2022/12/09 09:38:11;;;;;;;47.08;25.92;;;;;;;0.54;100.00;99993.47;5003023;28;20074;-81
2022/12/09 09:40:40;;;;;;;51.78;27.02;;;;;;;0.61;100.00;99988.72;5004914;28;20066;-78
2022/12/09 09:43:15;;;;;;;44.00;27.00;;;;;;;0.67;100.00;99983.16;5009641;28;20058;-79
2022/12/09 09:45:43;;;;;;;39.83;26.83;;;;;;;0.74;100.00;99989.50;5013248;28;20073;-80
2022/12/09 09:48:16;;;;;;;42.63;26.15;;;;;;;0.77;100.00;99984.16;4993716;28;20074;-79
2022/12/09 09:50:51;;;;;;;39.25;24.70;;;;;;;0.80;100.00;99978.78;4993323;28;20054;-80
2022/12/09 09:53:23;;;;;;;40.30;25.20;;;;;;;0.84;100.00;99972.47;4992654;28;20078;-78
2022/12/09 09:55:56;;;;;;;39.95;24.05;;;;;;;0.92;100.00;99977.09;4992405;28;20055;-80
2022/12/09 09:58:29;;;;;;;39.78;23.63;;;;;;;0.99;100.00;99973.94;4995192;28;20049;-80
2022/12/09 10:00:59;;;;;;;;;;;;;;;0.94;100.00;99970.06;5011174;28;20046;-80
2022/12/09 10:03:35;;;;;;;36.53;22.02;;;;;;;1.09;100.00;99975.84;5011909;28;19933;-81
2022/12/09 10:06:11;;;;;;;41.08;22.30;;;;;;;1.17;100.00;99971.78;5010083;28;20050;-81
2022/12/09 10:08:45;;;;;;;34.88;21.50;;;;;;;1.23;100.00;99976.47;5008902;28;20118;-80
2022/12/09 10:11:17;;;;;;;34.05;21.35;;;;;;;1.26;100.00;99967.72;5007863;28;20125;-82
2022/12/09 10:13:54;;;;;;;31.20;21.35;;;;;;;1.31;100.00;99957.88;5001577;28;20050;-81
2022/12/09 10:16:23;;;;;;;32.53;21.42;;;;;;;1.35;100.00;99959.31;5001015;28;20097;-80
2022/12/09 10:19:01;;;;;;;38.17;23.02;;;;;;;1.39;100.00;99960.72;4999800;28;20054;-82
2022/12/09 10:21:31;;;;;;;35.30;20.73;;;;;;;1.44;100.00;99952.63;5000989;28;20426;-82
2022/12/09 10:24:02;;;;;;;38.22;21.42;;;;;;;1.31;100.00;99942.41;5000280;28;20108;-81
2022/12/09 10:26:31;;;;;;;35.22;20.98;;;;;;;1.35;100.00;99953.31;5000874;28;20054;-82
2022/12/09 10:29:07;;;;;;;30.25;19.25;;;;;;;1.41;100.00;99945.97;4999331;28;20105;-82
2022/12/09 10:31:33;;;;;;;27.65;19.05;;;;;;;1.42;100.00;99949.34;4999536;28;20081;-82
2022/12/09 10:34:00;;;;;;;34.22;20.17;;;;;;;1.39;100.00;99944.44;4999978;28;20137;-81
2022/12/09 10:36:30;;;;;;;34.42;26.40;;;;;;;1.49;100.00;99935.88;4999422;28;20065;-81
2022/12/09 10:38:57;;;;;;;34.58;21.23;;;;;;;1.58;100.00;99937.75;4998513;28;20084;-81
2022/12/09 10:44:29;;;;;;;29.23;19.85;;;;;;;1.78;100.00;99932.88;5001206;28;20057;-81
2022/12/09 10:47:00;;;;;;;36.83;20.55;;;;;;;1.81;100.00;99930.06;5000245;28;20128;-81
2022/12/09 10:49:27;;;;;;;32.10;21.08;;;;;;;1.97;100.00;99926.16;5000516;28;20158;-81
2022/12/09 10:51:55;;;;;;;31.90;20.15;;;;;;;1.98;100.00;99929.56;5000899;28;20074;-81
2022/12/09 10:54:35;;;;;;;31.30;21.27;;;;;;;2.09;100.00;99913.25;5002158;28;20042;-81
2022/12/09 10:57:24;;;;;;;36.95;22.30;;;;;;;2.11;100.00;99914.78;5004506;28;20050;-80
2022/12/09 10:59:59;;;;;;;31.05;21.25;;;;;;;2.27;100.00;99909.25;5004058;28;20076;-82
2022/12/09 11:02:26;;;;;;;33.15;20.58;;;;;;;2.15;100.00;99900.69;5003363;28;20058;-81
2022/12/09 11:04:54;;;;;;;32.00;19.35;;;;;;;2.16;100.00;99910.06;5007711;28;20043;-81
2022/12/09 11:07:24;;;;;;;33.88;21.60;;;;;;;2.19;100.00;99907.25;5002760;28;20073;-82
2022/12/09 11:10:05;;;;;;;33.88;21.08;;;;;;;2.18;100.00;99908.19;4998083;28;20042;-81
2022/12/09 11:12:37;;;;;;;35.58;21.48;;;;;;;2.22;100.00;99904.44;5002348;28;20050;-81
2022/12/09 11:15:24;;;;;;;33.67;19.85;;;;;;;2.38;100.00;99905.78;4995326;28;20042;-81
2022/12/09 11:17:56;;;;;;;31.25;19.73;;;;;;;2.26;100.00;99905.00;4994373;28;20440;-78
2022/12/09 11:20:26;;;;;;;30.60;19.85;;;;;;;2.32;100.00;99900.19;4997090;28;20077;-79
2022/12/09 11:23:02;;;;;;;28.80;19.48;;;;;;;2.35;100.00;99893.16;4997584;28;20078;-80
2022/12/09 11:25:31;;;;;;;35.78;21.08;;;;;;;2.35;100.00;99893.16;4995122;28;20136;-81
2022/12/09 11:27:59;;;;;;;33.35;20.30;;;;;;;2.46;100.00;99891.34;4996705;28;20050;-80